createdAt,value
2022-12-03T00:01:18.294Z,87.16
2022-12-03T00:03:46.065Z,86.83
2022-12-03T00:06:13.864Z,86.61
2022-12-03T00:08:41.556Z,86.41
2022-12-03T00:11:09.307Z,86.37
2022-12-03T00:13:36.977Z,86.50
2022-12-03T00:16:05.405Z,86.92
2022-12-03T00:18:33.204Z,86.69
2022-12-03T00:21:00.956Z,86.63
2022-12-03T00:23:28.733Z,87.26
2022-12-03T00:25:56.430Z,87.39
2022-12-03T00:28:24.105Z,87.71
2022-12-03T00:30:54.164Z,87.27
2022-12-03T00:33:22.304Z,86.86
2022-12-03T00:35:50.122Z,86.56
2022-12-03T00:38:17.881Z,86.58
2022-12-03T00:40:45.576Z,86.72
2022-12-03T00:43:13.320Z,86.65
2022-12-03T00:45:41.096Z,86.31
2022-12-03T00:48:08.767Z,86.41
2022-12-03T00:50:36.448Z,86.91
2022-12-03T00:53:04.232Z,87.26
2022-12-03T00:55:31.979Z,87.46
2022-12-03T00:57:59.643Z,87.70
2022-12-03T01:00:27.431Z,87.45
2022-12-03T01:02:55.147Z,86.96
2022-12-03T01:05:22.835Z,86.75
2022-12-03T01:07:50.648Z,86.37
2022-12-03T01:10:18.418Z,86.35
2022-12-03T01:12:46.261Z,86.16
2022-12-03T01:15:14.073Z,86.07
2022-12-03T01:17:41.797Z,86.42
2022-12-03T01:20:11.198Z,86.50
2022-12-03T01:26:06.839Z,86.94
2022-12-03T01:28:34.631Z,87.36
2022-12-03T01:31:21.039Z,87.77
2022-12-03T01:33:48.820Z,87.48
2022-12-03T01:36:16.492Z,87.22
2022-12-03T01:38:45.069Z,86.83
2022-12-03T01:41:12.760Z,86.74
2022-12-03T01:43:40.560Z,86.70
2022-12-03T01:46:10.541Z,86.49
2022-12-03T01:48:38.450Z,86.33
2022-12-03T01:51:07.034Z,86.72
2022-12-03T01:53:34.897Z,86.65
2022-12-03T01:56:02.623Z,86.74
2022-12-03T01:58:30.639Z,86.59
2022-12-03T02:01:04.531Z,86.92
2022-12-03T02:03:32.326Z,87.48
2022-12-03T02:06:00.448Z,87.66
2022-12-03T02:08:36.295Z,87.65
2022-12-03T02:11:31.742Z,87.26
2022-12-03T02:14:04.153Z,87.11
2022-12-03T02:16:32.247Z,86.60
2022-12-03T02:19:00.090Z,86.61
2022-12-03T02:22:00.199Z,86.69
2022-12-03T02:24:48.410Z,86.59
2022-12-03T02:27:16.085Z,86.52
2022-12-03T02:29:43.946Z,87.02
2022-12-03T02:32:11.712Z,87.17
2022-12-03T02:34:41.301Z,87.36
2022-12-03T02:37:15.489Z,87.18
2022-12-03T02:39:49.623Z,87.15
2022-12-03T02:42:36.532Z,87.01
2022-12-03T02:45:36.246Z,86.55
2022-12-03T02:48:08.759Z,86.37
2022-12-03T02:50:40.132Z,86.54
2022-12-03T02:53:19.281Z,86.37
2022-12-03T02:55:48.573Z,86.39
2022-12-03T02:58:17.220Z,86.78
2022-12-03T03:00:46.511Z,86.87
2022-12-03T03:03:14.353Z,87.36
2022-12-03T03:05:42.335Z,87.46
2022-12-03T03:08:11.643Z,87.04
2022-12-03T03:10:41.040Z,86.47
2022-12-03T03:13:14.175Z,86.29
2022-12-03T03:15:42.878Z,86.04
2022-12-03T03:18:12.580Z,86.00
2022-12-03T03:20:41.207Z,86.05
2022-12-03T03:23:11.659Z,86.13
2022-12-03T03:25:43.429Z,85.86
2022-12-03T03:28:12.295Z,85.84
2022-12-03T03:30:41.761Z,85.92
2022-12-03T03:33:11.020Z,86.16
2022-12-03T03:35:39.610Z,86.28
2022-12-03T03:38:08.908Z,86.85
2022-12-03T03:40:38.447Z,87.37
2022-12-03T03:43:07.209Z,86.73
2022-12-03T03:45:34.956Z,86.57
2022-12-03T03:48:02.906Z,86.48
2022-12-03T03:50:32.051Z,86.21
2022-12-03T03:53:02.561Z,86.15
2022-12-03T03:55:30.696Z,85.75
2022-12-03T03:57:58.933Z,85.82
2022-12-03T04:00:27.170Z,85.72
2022-12-03T04:02:55.007Z,85.94
2022-12-03T04:05:24.336Z,86.21
2022-12-03T04:07:52.397Z,86.46
2022-12-03T04:10:38.695Z,86.76
2022-12-03T04:13:06.495Z,86.95
2022-12-03T04:15:34.546Z,86.95
2022-12-03T04:18:21.181Z,86.51
2022-12-03T04:20:48.835Z,86.08
2022-12-03T04:23:16.540Z,85.97
2022-12-03T04:26:02.885Z,85.42
2022-12-03T04:28:49.262Z,85.51
2022-12-03T04:31:35.646Z,85.57
2022-12-03T04:34:22.020Z,85.58
2022-12-03T04:36:50.923Z,85.76
2022-12-03T04:39:18.895Z,85.80
2022-12-03T04:41:46.794Z,86.07
2022-12-03T04:44:33.044Z,86.56
2022-12-03T04:47:07.036Z,86.78
2022-12-03T04:49:37.137Z,86.99
2022-12-03T04:52:05.765Z,86.14
2022-12-03T04:54:34.205Z,86.13
2022-12-03T04:57:03.171Z,85.87
2022-12-03T04:59:31.043Z,85.86
2022-12-03T05:01:58.953Z,85.46
2022-12-03T05:04:26.789Z,85.38
2022-12-03T05:06:54.536Z,85.40
2022-12-03T05:09:22.459Z,85.63
2022-12-03T05:11:50.147Z,85.49
2022-12-03T05:14:17.825Z,85.39
2022-12-03T05:16:45.701Z,85.84
2022-12-03T05:19:13.442Z,86.34
2022-12-03T05:25:09.372Z,86.68
2022-12-03T05:27:37.072Z,86.32
2022-12-03T05:30:05.405Z,86.06
2022-12-03T05:32:33.127Z,85.90
2022-12-03T05:35:00.848Z,85.67
2022-12-03T05:37:28.556Z,85.52
2022-12-03T05:39:56.213Z,85.52
2022-12-03T05:42:42.389Z,85.42
2022-12-03T05:45:10.650Z,85.72
2022-12-03T05:47:38.487Z,86.08
2022-12-03T05:50:07.001Z,86.31
2022-12-03T05:52:34.715Z,86.47
2022-12-03T05:55:02.383Z,86.22
2022-12-03T05:57:30.068Z,85.84
2022-12-03T05:59:57.717Z,85.65
2022-12-03T06:02:25.595Z,85.62
2022-12-03T06:04:53.796Z,85.27
2022-12-03T06:07:21.708Z,85.29
2022-12-03T06:09:49.379Z,85.26
2022-12-03T06:12:17.259Z,85.36
2022-12-03T06:14:45.038Z,85.45
2022-12-03T06:17:12.699Z,85.38
2022-12-03T06:19:40.475Z,85.80
2022-12-03T06:22:08.135Z,86.29
2022-12-03T06:24:35.834Z,86.31
2022-12-03T06:27:04.956Z,86.22
2022-12-03T06:29:32.704Z,85.86
2022-12-03T06:32:00.404Z,85.65
2022-12-03T06:34:28.065Z,85.57
2022-12-03T06:36:55.811Z,85.71
2022-12-03T06:39:23.601Z,85.30
2022-12-03T06:41:51.362Z,85.56
2022-12-03T06:44:19.156Z,85.49
2022-12-03T06:46:47.371Z,85.86
2022-12-03T06:49:15.154Z,86.23
2022-12-03T06:51:42.887Z,86.51
2022-12-03T06:54:11.988Z,86.36
2022-12-03T06:56:45.092Z,86.23
2022-12-03T06:59:13.829Z,85.98
2022-12-03T07:01:41.594Z,86.08
2022-12-03T07:04:09.953Z,86.10
2022-12-03T07:06:37.653Z,86.07
2022-12-03T07:09:05.425Z,86.11
2022-12-03T07:11:33.298Z,86.04
2022-12-03T07:14:05.539Z,86.35
2022-12-03T07:16:37.337Z,86.14
2022-12-03T07:19:06.274Z,86.56
2022-12-03T07:35:09.817Z,85.49
2022-12-03T07:37:36.537Z,85.45
2022-12-03T07:40:04.499Z,85.12
2022-12-03T07:42:30.877Z,85.38
2022-12-03T07:44:57.267Z,85.73
2022-12-03T07:47:23.549Z,85.90
2022-12-03T07:49:49.916Z,86.05
2022-12-03T07:52:16.347Z,86.01
2022-12-03T07:54:43.517Z,85.86
2022-12-03T07:57:09.808Z,85.87
2022-12-03T07:59:36.111Z,85.27
2022-12-03T08:02:02.854Z,85.10
2022-12-03T08:04:29.391Z,85.77
2022-12-03T08:06:55.712Z,85.84
2022-12-03T08:09:22.293Z,85.36
2022-12-03T08:11:49.488Z,86.15
2022-12-03T08:14:17.500Z,86.79
2022-12-03T08:16:45.535Z,86.72
2022-12-03T08:19:14.158Z,86.77
2022-12-03T08:21:40.912Z,86.71
2022-12-03T08:24:20.198Z,86.19
2022-12-03T08:26:48.233Z,86.22
2022-12-03T08:29:17.575Z,86.05
2022-12-03T08:31:53.701Z,86.43
2022-12-03T08:34:20.198Z,86.88
2022-12-03T08:36:50.705Z,86.39
2022-12-03T08:39:20.096Z,86.70
2022-12-03T08:42:14.018Z,87.03
2022-12-03T08:44:40.801Z,88.00
2022-12-03T08:47:19.395Z,87.45
2022-12-03T08:49:59.486Z,87.89
2022-12-03T08:52:32.025Z,87.37
2022-12-03T08:55:02.024Z,87.59
2022-12-03T08:57:33.993Z,87.55
2022-12-03T09:00:14.140Z,87.30
2022-12-03T09:02:47.050Z,86.97
2022-12-03T09:05:25.725Z,87.16
2022-12-03T09:07:52.072Z,87.19
2022-12-03T09:10:18.512Z,87.30
2022-12-03T09:12:44.834Z,87.53
2022-12-03T09:15:11.241Z,87.73
2022-12-03T09:17:37.966Z,87.85
2022-12-03T09:20:05.709Z,87.34
2022-12-03T09:22:32.161Z,87.08
2022-12-03T09:24:58.677Z,87.07
2022-12-03T09:27:25.252Z,87.06
2022-12-03T09:29:51.649Z,87.37
2022-12-03T09:32:18.843Z,87.31
2022-12-03T09:34:45.744Z,87.51
2022-12-03T09:37:12.113Z,87.61
2022-12-03T09:39:38.415Z,87.46
2022-12-03T09:42:05.044Z,87.99
2022-12-03T09:44:33.660Z,87.68
2022-12-03T09:47:01.282Z,87.60
2022-12-03T09:49:29.609Z,87.96
2022-12-03T09:51:57.784Z,87.80
2022-12-03T09:54:27.318Z,87.56
2022-12-03T09:56:56.529Z,87.27
2022-12-03T09:59:27.067Z,87.22
2022-12-03T10:01:53.993Z,87.42
2022-12-03T10:04:20.802Z,87.64
2022-12-03T10:06:47.430Z,87.59
2022-12-03T10:09:21.727Z,87.97
2022-12-03T10:11:48.477Z,88.22
2022-12-03T10:14:17.163Z,87.91
2022-12-03T10:16:44.399Z,87.42
2022-12-03T10:19:32.200Z,87.62
2022-12-03T10:21:58.861Z,87.83
2022-12-03T10:24:28.250Z,87.46
2022-12-03T10:26:57.682Z,87.57
2022-12-03T10:29:35.337Z,87.86
2022-12-03T10:32:07.900Z,87.92
2022-12-03T10:34:36.769Z,87.75
2022-12-03T10:37:12.357Z,87.90
2022-12-03T10:40:08.546Z,87.99
2022-12-03T10:42:38.014Z,88.07
2022-12-03T10:45:11.493Z,88.05
2022-12-03T10:47:37.918Z,88.00
2022-12-03T10:50:14.144Z,87.42
2022-12-03T10:52:40.656Z,87.51
2022-12-03T10:55:11.443Z,87.29
2022-12-03T10:57:45.052Z,87.08
2022-12-03T11:00:18.007Z,87.21
2022-12-03T11:02:45.479Z,87.90
2022-12-03T11:05:17.517Z,87.49
2022-12-03T11:07:44.208Z,87.72
2022-12-03T11:10:18.834Z,87.73
2022-12-03T11:13:23.101Z,87.72
2022-12-03T11:15:49.449Z,87.80
2022-12-03T11:18:36.244Z,87.74
2022-12-03T11:21:13.560Z,87.89
2022-12-03T11:23:45.937Z,87.98
2022-12-03T11:26:36.755Z,87.69
2022-12-03T11:29:12.393Z,88.14
2022-12-03T11:31:41.979Z,87.69
2022-12-03T11:34:17.569Z,87.72
2022-12-03T11:37:08.978Z,88.08
2022-12-03T11:39:47.141Z,87.92
2022-12-03T11:42:25.850Z,88.04
2022-12-03T11:45:10.586Z,87.88
2022-12-03T11:47:59.544Z,87.85
2022-12-03T11:50:39.422Z,87.56
2022-12-03T11:53:20.090Z,87.31
2022-12-03T11:55:51.456Z,87.60
2022-12-03T11:58:29.854Z,87.63
2022-12-03T12:00:58.377Z,87.69
2022-12-03T12:03:26.208Z,87.78
2022-12-03T12:06:10.690Z,87.98
2022-12-03T12:08:49.978Z,87.95
2022-12-03T12:11:25.246Z,87.69
2022-12-03T12:13:55.062Z,87.41
2022-12-03T12:16:40.588Z,87.36
2022-12-03T12:19:32.030Z,86.91
2022-12-03T12:22:27.076Z,87.14
2022-12-03T12:24:54.541Z,86.76
2022-12-03T12:27:44.941Z,86.84
2022-12-03T12:30:16.766Z,87.27
2022-12-03T12:32:46.759Z,87.50
2022-12-03T12:35:32.162Z,87.46
2022-12-03T12:38:08.000Z,87.34
2022-12-03T12:40:38.057Z,87.25
2022-12-03T12:43:14.357Z,87.44
2022-12-03T12:45:44.597Z,87.44
2022-12-03T12:48:13.869Z,87.34
2022-12-03T12:50:42.782Z,87.00
2022-12-03T12:53:33.858Z,87.26
2022-12-03T12:56:13.414Z,87.48
2022-12-03T12:58:41.273Z,87.21
2022-12-03T13:01:19.174Z,87.62
2022-12-03T13:03:50.341Z,87.79
2022-12-03T13:06:18.570Z,87.78
2022-12-03T13:08:48.221Z,87.48
2022-12-03T13:11:20.397Z,87.50
2022-12-03T13:13:46.687Z,87.23
2022-12-03T13:16:22.543Z,87.16
2022-12-03T13:18:53.833Z,87.34
2022-12-03T13:21:30.805Z,86.97
2022-12-03T13:23:57.236Z,87.47
2022-12-03T13:26:39.529Z,87.40
2022-12-03T13:29:18.231Z,87.64
2022-12-03T13:31:56.076Z,87.41
2022-12-03T13:34:30.390Z,87.65
2022-12-03T13:39:47.872Z,87.66
2022-12-03T13:42:33.099Z,87.85
2022-12-03T13:45:02.156Z,87.39
2022-12-03T13:47:28.441Z,87.28
2022-12-03T13:50:02.917Z,87.46
2022-12-03T13:52:32.026Z,87.32
2022-12-03T13:54:58.369Z,87.69
2022-12-03T13:57:24.906Z,87.70
2022-12-03T13:59:51.445Z,88.19
2022-12-03T14:02:18.230Z,88.36
2022-12-03T14:04:44.646Z,88.46
2022-12-03T14:07:10.956Z,88.59
2022-12-03T14:09:37.255Z,88.71
2022-12-03T14:12:22.399Z,88.51
2022-12-03T14:14:49.043Z,88.68
2022-12-03T14:17:15.366Z,88.83
2022-12-03T14:19:42.315Z,88.43
2022-12-03T14:22:09.363Z,88.66
2022-12-03T14:24:36.987Z,88.62
2022-12-03T14:27:03.398Z,88.52
2022-12-03T14:29:29.729Z,88.77
2022-12-03T14:31:56.401Z,88.49
2022-12-03T14:34:22.846Z,88.43
2022-12-03T14:36:50.237Z,89.05
2022-12-03T14:39:16.550Z,89.54
2022-12-03T14:42:01.344Z,90.00
2022-12-03T14:44:27.659Z,90.02
2022-12-03T14:46:57.343Z,90.44
2022-12-03T14:49:24.415Z,89.81
2022-12-03T14:51:50.712Z,90.06
2022-12-03T14:54:17.148Z,89.52
2022-12-03T14:56:43.442Z,90.06
2022-12-03T14:59:10.126Z,90.27
2022-12-03T15:01:36.492Z,89.81
2022-12-03T15:04:02.879Z,89.47
2022-12-03T15:06:29.258Z,89.76
2022-12-03T15:08:55.591Z,89.90
2022-12-03T15:11:22.214Z,90.01
2022-12-03T15:13:48.577Z,89.49
2022-12-03T15:16:15.374Z,90.23
2022-12-03T15:18:41.726Z,90.43
2022-12-03T15:21:08.332Z,90.19
2022-12-03T15:27:13.027Z,89.97
2022-12-03T15:29:41.186Z,89.90
2022-12-03T15:32:08.841Z,90.46
2022-12-03T15:34:36.510Z,90.24
2022-12-03T15:37:04.248Z,90.20
2022-12-03T15:39:32.984Z,90.18
2022-12-03T15:42:00.684Z,90.47
2022-12-03T15:44:28.442Z,90.48
2022-12-03T15:46:56.191Z,90.28
2022-12-03T15:49:23.940Z,89.62
2022-12-03T15:51:51.677Z,90.22
2022-12-03T15:54:19.789Z,89.70
2022-12-03T15:56:48.278Z,90.47
2022-12-03T15:59:18.150Z,90.10
2022-12-03T16:01:45.893Z,89.90
2022-12-03T16:04:13.625Z,90.56
2022-12-03T16:06:41.404Z,90.68
2022-12-03T16:09:09.134Z,90.63
2022-12-03T16:11:36.851Z,90.78
2022-12-03T16:14:04.653Z,90.73
2022-12-03T16:16:32.481Z,90.42
2022-12-03T16:19:00.306Z,90.19
2022-12-03T16:21:28.158Z,90.60
2022-12-03T16:23:56.058Z,91.16
2022-12-03T16:26:24.472Z,90.89
2022-12-03T16:28:52.415Z,91.07
2022-12-03T16:31:20.637Z,90.50
2022-12-03T16:33:48.843Z,91.09
2022-12-03T16:36:17.028Z,91.50
2022-12-03T16:38:44.909Z,90.94
2022-12-03T16:41:13.896Z,90.50
2022-12-03T16:43:41.719Z,90.72
2022-12-03T16:46:19.324Z,90.11
2022-12-03T16:48:54.234Z,90.87
2022-12-03T16:51:22.755Z,90.96
2022-12-03T16:53:51.277Z,90.74
2022-12-03T16:56:21.004Z,91.13
2022-12-03T16:58:48.771Z,90.72
2022-12-03T17:01:16.826Z,91.33
2022-12-03T17:03:44.669Z,91.90
2022-12-03T17:06:12.369Z,91.36
2022-12-03T17:08:44.382Z,91.17
2022-12-03T17:11:15.221Z,90.82
2022-12-03T17:13:42.917Z,91.30
2022-12-03T17:16:11.180Z,91.97
2022-12-03T17:18:39.223Z,91.76
2022-12-03T17:21:06.907Z,91.98
2022-12-03T17:23:34.848Z,91.68
2022-12-03T17:26:02.509Z,91.69
2022-12-03T17:28:30.237Z,91.72
2022-12-03T17:30:58.039Z,91.44
2022-12-03T17:33:26.106Z,91.64
2022-12-03T17:35:53.820Z,91.61
2022-12-03T17:38:21.572Z,91.47
2022-12-03T17:40:49.396Z,91.52
2022-12-03T17:43:17.216Z,91.84
2022-12-03T17:45:44.987Z,91.78
2022-12-03T17:48:12.764Z,92.39
2022-12-03T17:50:40.542Z,92.39
2022-12-03T17:53:10.402Z,92.50
2022-12-03T17:55:44.335Z,92.90
2022-12-03T17:58:13.683Z,92.58
2022-12-03T18:00:41.525Z,92.81
2022-12-03T18:03:09.395Z,93.07
2022-12-03T18:05:37.311Z,92.77
2022-12-03T18:08:06.001Z,92.56
2022-12-03T18:10:33.814Z,93.58
2022-12-03T18:13:02.443Z,93.40
2022-12-03T18:15:31.276Z,93.77
2022-12-03T18:17:59.058Z,93.47
2022-12-03T18:20:27.142Z,93.64
2022-12-03T18:22:54.867Z,93.73
2022-12-03T18:25:22.871Z,93.55
2022-12-03T18:27:50.875Z,93.08
2022-12-03T18:30:19.013Z,93.69
2022-12-03T18:32:47.883Z,93.58
2022-12-03T18:35:15.726Z,93.61
2022-12-03T18:37:43.656Z,93.42
2022-12-03T18:40:21.495Z,93.48
2022-12-03T18:42:49.380Z,93.22
2022-12-03T18:45:17.190Z,92.88
2022-12-03T18:47:45.318Z,93.12
2022-12-03T18:50:13.995Z,92.86
2022-12-03T18:52:42.449Z,92.80
2022-12-03T18:55:18.548Z,92.63
2022-12-03T18:57:46.276Z,93.07
2022-12-03T19:00:14.870Z,93.00
2022-12-03T19:05:33.416Z,92.62
2022-12-03T19:08:02.170Z,92.61
2022-12-03T19:10:30.908Z,93.05
2022-12-03T19:12:59.225Z,92.65
2022-12-03T19:15:27.187Z,92.60
2022-12-03T19:17:55.219Z,92.59
2022-12-03T19:20:23.175Z,92.24
2022-12-03T19:22:51.025Z,92.56
2022-12-03T19:25:18.887Z,92.51
2022-12-03T19:27:46.795Z,92.14
2022-12-03T19:30:14.611Z,92.30
2022-12-03T19:32:42.512Z,92.36
2022-12-03T19:35:11.453Z,92.40
2022-12-03T19:37:39.496Z,92.60
2022-12-03T19:40:10.272Z,92.41
2022-12-03T19:42:39.434Z,92.37
2022-12-03T19:45:08.302Z,92.69
2022-12-03T19:47:37.477Z,92.59
2022-12-03T19:50:05.946Z,92.63
2022-12-03T19:52:36.211Z,92.57
2022-12-03T19:55:04.430Z,92.58
2022-12-03T19:57:32.283Z,92.53
2022-12-03T20:00:01.290Z,92.24
2022-12-03T20:02:29.800Z,92.23
2022-12-03T20:04:57.879Z,92.21
2022-12-03T20:07:26.203Z,92.22
2022-12-03T20:09:54.642Z,92.17
2022-12-03T20:12:22.724Z,92.00
2022-12-03T20:14:51.728Z,92.58
2022-12-03T20:17:19.588Z,92.50
2022-12-03T20:19:47.438Z,92.29
2022-12-03T20:22:15.153Z,91.92
2022-12-03T20:24:42.943Z,92.40
2022-12-03T20:27:10.792Z,92.12
2022-12-03T20:29:39.531Z,92.19
2022-12-03T20:32:07.711Z,91.91
2022-12-03T20:34:36.388Z,91.90
2022-12-03T20:37:04.208Z,91.57
2022-12-03T20:39:31.953Z,92.29
2022-12-03T20:41:59.719Z,92.28
2022-12-03T20:44:27.501Z,92.38
2022-12-03T20:46:55.544Z,92.57
2022-12-03T20:49:23.358Z,92.48
2022-12-03T20:51:51.222Z,92.77
2022-12-03T20:54:18.976Z,92.78
2022-12-03T20:56:46.718Z,92.68
2022-12-03T20:59:16.820Z,92.57
2022-12-03T21:01:45.374Z,92.32
2022-12-03T21:04:18.027Z,92.69
2022-12-03T21:06:46.277Z,92.79
2022-12-03T21:09:14.168Z,92.58
2022-12-03T21:11:42.658Z,92.61
2022-12-03T21:14:11.503Z,92.65
2022-12-03T21:17:06.479Z,92.71
2022-12-03T21:19:27.934Z,92.70
2022-12-03T21:21:55.874Z,92.50
2022-12-03T21:24:23.706Z,92.56
2022-12-03T21:26:51.761Z,92.60
2022-12-03T21:29:20.594Z,92.37
2022-12-03T21:31:48.656Z,92.78
2022-12-03T21:34:18.583Z,92.54
2022-12-03T21:36:46.578Z,92.58
2022-12-03T21:39:15.897Z,92.38
2022-12-03T21:42:22.158Z,92.54
2022-12-03T21:44:35.184Z,92.69
2022-12-03T21:47:11.822Z,92.53
2022-12-03T21:49:41.897Z,92.99
2022-12-03T21:52:10.506Z,93.47
2022-12-03T21:54:39.833Z,93.23
2022-12-03T21:57:07.627Z,93.21
2022-12-03T21:59:35.610Z,93.73
2022-12-03T22:02:03.886Z,93.34
2022-12-03T22:04:31.821Z,93.26
2022-12-03T22:06:59.882Z,94.00
2022-12-03T22:09:30.356Z,94.34
2022-12-03T22:12:00.781Z,94.17
2022-12-03T22:14:28.805Z,94.02
2022-12-03T22:16:56.656Z,94.17
2022-12-03T22:19:26.322Z,94.63
2022-12-03T22:21:54.271Z,94.38
2022-12-03T22:24:23.764Z,94.39
2022-12-03T22:26:53.487Z,94.72
2022-12-03T22:29:21.535Z,94.89
2022-12-03T22:31:49.275Z,94.55
2022-12-03T22:34:16.945Z,94.75
2022-12-03T22:36:44.673Z,94.64
2022-12-03T22:39:12.911Z,94.69
2022-12-03T22:41:40.808Z,94.81
2022-12-03T22:44:08.559Z,94.73
2022-12-03T22:46:36.424Z,94.76
2022-12-03T22:49:07.329Z,94.91
2022-12-03T22:51:35.820Z,94.95
2022-12-03T22:54:03.876Z,94.52
2022-12-03T22:56:32.058Z,94.78
2022-12-03T22:59:00.121Z,94.98
2022-12-03T23:01:31.035Z,94.87
2022-12-03T23:03:59.372Z,94.76
2022-12-03T23:06:28.838Z,94.96
2022-12-03T23:08:58.145Z,94.64
2022-12-03T23:11:26.625Z,94.75
2022-12-03T23:13:54.941Z,94.59
2022-12-03T23:16:27.494Z,94.61
2022-12-03T23:18:57.050Z,94.99
2022-12-03T23:21:30.218Z,94.54
2022-12-03T23:23:59.584Z,94.88
2022-12-03T23:26:28.518Z,94.64
2022-12-03T23:28:56.582Z,94.75
2022-12-03T23:31:26.279Z,94.77
2022-12-03T23:33:54.725Z,94.79
2022-12-03T23:36:24.293Z,95.01
2022-12-03T23:38:52.056Z,94.84
2022-12-03T23:41:21.518Z,95.16
2022-12-03T23:43:49.625Z,94.80
2022-12-03T23:46:21.084Z,94.94
2022-12-03T23:48:50.182Z,95.19
2022-12-03T23:51:20.953Z,95.64
2022-12-03T23:53:48.783Z,95.62
2022-12-03T23:56:19.691Z,95.65
2022-12-03T23:58:47.956Z,95.81
